createdAt,value
2022-08-13T00:01:14.237Z,3.00
2022-08-13T00:04:07.232Z,2.80
2022-08-13T00:07:06.131Z,4.80
2022-08-13T00:09:53.332Z,2.70
2022-08-13T00:12:59.017Z,3.13
2022-08-13T00:15:48.481Z,3.53
2022-08-13T00:18:42.988Z,2.00
2022-08-13T00:21:58.340Z,1.90
2022-08-13T00:24:41.317Z,2.33
2022-08-13T00:28:00.842Z,3.03
2022-08-13T00:30:48.331Z,3.00
2022-08-13T00:33:44.585Z,2.30
2022-08-13T00:36:37.752Z,2.70
2022-08-13T00:39:25.547Z,3.40
2022-08-13T00:42:21.969Z,2.10
2022-08-13T00:45:14.973Z,2.13
2022-08-13T00:48:21.945Z,2.67
2022-08-13T00:51:12.134Z,2.30
2022-08-13T00:54:14.902Z,2.80
2022-08-13T00:57:07.615Z,3.10
2022-08-13T00:59:54.755Z,3.57
2022-08-13T01:02:56.001Z,2.30
2022-08-13T01:05:46.741Z,3.90
2022-08-13T01:08:37.626Z,3.40
2022-08-13T01:11:25.741Z,2.10
2022-08-13T01:14:12.783Z,3.90
2022-08-13T01:17:07.254Z,3.57
2022-08-13T01:20:00.091Z,2.20
2022-08-13T01:22:53.730Z,3.60
2022-08-13T01:25:53.737Z,2.10
2022-08-13T01:28:52.978Z,2.50
2022-08-13T01:31:42.361Z,3.43
2022-08-13T01:34:32.501Z,2.37
2022-08-13T01:37:20.147Z,3.63
2022-08-13T01:40:10.138Z,3.60
2022-08-13T01:42:59.438Z,2.53
2022-08-13T01:45:52.537Z,2.00
2022-08-13T01:49:00.492Z,3.00
2022-08-13T01:51:51.989Z,4.60
2022-08-13T01:54:42.933Z,2.13
2022-08-13T01:57:44.679Z,2.80
2022-08-13T02:00:40.929Z,1.70
2022-08-13T02:03:29.113Z,3.10
2022-08-13T02:06:26.828Z,3.70
2022-08-13T02:09:58.142Z,3.50
2022-08-13T02:12:34.485Z,3.60
2022-08-13T02:15:30.433Z,2.63
2022-08-13T02:18:29.057Z,4.07
2022-08-13T02:21:20.568Z,3.67
2022-08-13T02:24:17.174Z,3.00
2022-08-13T02:27:08.630Z,4.77
2022-08-13T02:29:57.482Z,2.53
2022-08-13T02:32:44.554Z,3.23
2022-08-13T02:35:47.359Z,5.53
2022-08-13T02:38:35.772Z,2.83
2022-08-13T02:41:52.037Z,1.97
2022-08-13T02:44:40.580Z,2.77
2022-08-13T02:47:44.847Z,2.53
2022-08-13T02:50:32.904Z,3.77
2022-08-13T02:53:36.224Z,2.37
2022-08-13T02:56:28.287Z,2.97
2022-08-13T02:59:29.474Z,2.93
2022-08-13T03:02:23.804Z,4.13
2022-08-13T03:05:15.954Z,2.67
2022-08-13T03:08:07.337Z,3.03
2022-08-13T03:10:57.926Z,6.30
2022-08-13T03:13:51.468Z,3.63
2022-08-13T03:16:41.068Z,4.47
2022-08-13T03:19:28.122Z,3.57
2022-08-13T03:22:15.169Z,4.07
2022-08-13T03:25:02.290Z,3.27
2022-08-13T03:27:50.690Z,2.67
2022-08-13T03:30:42.976Z,2.50
2022-08-13T03:34:03.547Z,3.70
2022-08-13T03:36:50.533Z,4.47
2022-08-13T03:39:39.850Z,2.70
2022-08-13T03:42:52.171Z,3.23
2022-08-13T03:45:35.876Z,3.60
2022-08-13T03:48:33.180Z,4.37
2022-08-13T03:51:35.808Z,3.37
2022-08-13T03:54:26.173Z,3.57
2022-08-13T03:57:24.270Z,3.03
2022-08-13T04:00:14.290Z,4.03
2022-08-13T04:03:01.732Z,4.97
2022-08-13T04:06:01.823Z,3.47
2022-08-13T04:08:50.635Z,4.27
2022-08-13T04:11:37.917Z,3.03
2022-08-13T04:14:40.757Z,4.47
2022-08-13T04:17:28.175Z,5.30
2022-08-13T04:20:15.703Z,4.57
2022-08-13T04:23:02.751Z,3.00
2022-08-13T04:25:52.819Z,3.70
2022-08-13T04:28:40.098Z,3.20
2022-08-13T04:31:46.933Z,2.80
2022-08-13T04:34:39.135Z,3.70
2022-08-13T04:37:35.056Z,4.50
2022-08-13T04:40:40.645Z,5.43
2022-08-13T04:43:40.969Z,5.67
2022-08-13T04:46:29.239Z,4.10
2022-08-13T04:49:17.078Z,3.60
2022-08-13T04:52:06.139Z,4.70
2022-08-13T04:54:54.601Z,5.07
2022-08-13T04:57:56.324Z,5.83
2022-08-13T05:00:50.877Z,7.90
2022-08-13T05:03:43.620Z,4.43
2022-08-13T05:06:32.462Z,5.07
2022-08-13T05:09:27.023Z,3.60
2022-08-13T05:12:29.341Z,4.60
2022-08-13T05:15:41.501Z,7.83
2022-08-13T05:18:33.217Z,4.33
2022-08-13T05:21:24.821Z,4.90
2022-08-13T05:26:19.818Z,4.30
2022-08-13T05:27:41.330Z,4.50
2022-08-13T05:30:31.856Z,6.23
2022-08-13T05:33:33.918Z,5.13
2022-08-13T05:38:14.128Z,5.70
2022-08-13T05:39:29.391Z,4.70
2022-08-13T05:42:26.814Z,5.97
2022-08-13T05:45:18.497Z,5.00
2022-08-13T05:48:06.536Z,5.77
2022-08-13T05:50:54.437Z,7.17
2022-08-13T05:56:04.205Z,5.57
2022-08-13T05:56:49.473Z,7.30
2022-08-13T05:59:57.873Z,5.33
2022-08-13T06:03:06.430Z,5.93
2022-08-13T06:05:57.196Z,7.03
2022-08-13T06:08:44.734Z,5.43
2022-08-13T06:12:26.345Z,4.43
2022-08-13T06:14:39.805Z,3.83
2022-08-13T06:17:29.751Z,4.93
2022-08-13T06:20:23.412Z,5.00
2022-08-13T06:23:15.895Z,4.13
2022-08-13T06:26:05.275Z,7.90
2022-08-13T06:28:53.399Z,3.73
2022-08-13T06:31:45.916Z,5.53
2022-08-13T06:34:36.787Z,5.27
2022-08-13T06:37:24.310Z,6.50
2022-08-13T06:40:31.473Z,4.60
2022-08-13T06:43:21.347Z,4.77
2022-08-13T06:46:10.306Z,5.77
2022-08-13T06:49:16.446Z,4.73
2022-08-13T06:52:05.170Z,4.53
2022-08-13T06:54:56.433Z,5.43
2022-08-13T06:58:15.166Z,2.93
2022-08-13T07:00:53.305Z,5.27
2022-08-13T07:03:47.049Z,3.73
2022-08-13T07:06:48.627Z,4.27
2022-08-13T07:09:42.394Z,5.63
2022-08-13T07:12:33.558Z,5.43
2022-08-13T07:15:24.891Z,3.23
2022-08-13T07:18:28.457Z,5.10
2022-08-13T07:21:17.765Z,5.40
2022-08-13T07:24:39.245Z,5.23
2022-08-13T07:27:12.785Z,13.17
2022-08-13T07:30:01.170Z,5.93
2022-08-13T07:32:48.740Z,4.17
2022-08-13T07:35:52.339Z,3.80
2022-08-13T07:38:41.520Z,2.97
2022-08-13T07:41:31.668Z,4.53
2022-08-13T07:44:23.347Z,2.97
2022-08-13T07:47:17.268Z,4.03
2022-08-13T07:50:12.428Z,4.63
2022-08-13T07:52:59.526Z,5.68
2022-08-13T07:56:07.628Z,3.83
2022-08-13T07:58:56.528Z,2.38
2022-08-13T08:02:19.370Z,4.28
2022-08-13T08:04:54.322Z,5.78
2022-08-13T08:08:05.111Z,4.43
2022-08-13T08:10:49.815Z,6.32
2022-08-13T08:13:37.230Z,4.20
2022-08-13T08:16:35.849Z,3.15
2022-08-13T08:20:07.200Z,4.45
2022-08-13T08:22:31.826Z,5.00
2022-08-13T08:25:22.901Z,2.60
2022-08-13T08:28:34.385Z,4.20
2022-08-13T08:31:57.421Z,4.82
2022-08-13T08:34:28.417Z,5.78
2022-08-13T08:37:38.286Z,3.28
2022-08-13T08:40:55.863Z,3.65
2022-08-13T08:43:47.325Z,3.88
2022-08-13T08:46:35.612Z,3.53
2022-08-13T08:49:26.414Z,5.07
2022-08-13T08:52:45.246Z,4.70
2022-08-13T08:55:39.763Z,4.18
2022-08-13T08:58:42.068Z,3.28
2022-08-13T09:01:59.075Z,3.38
2022-08-13T09:04:52.331Z,4.45
2022-08-13T09:07:43.276Z,5.47
2022-08-13T09:10:34.542Z,4.88
2022-08-13T09:13:23.204Z,4.15
2022-08-13T09:16:10.642Z,4.13
2022-08-13T09:18:59.417Z,4.32
2022-08-13T09:21:49.521Z,4.43
2022-08-13T09:24:48.406Z,5.07
2022-08-13T09:28:01.518Z,5.28
2022-08-13T09:30:46.510Z,5.57
2022-08-13T09:33:59.690Z,6.43
2022-08-13T09:36:47.690Z,5.28
2022-08-13T09:39:44.449Z,5.93
2022-08-13T09:42:38.775Z,5.30
2022-08-13T09:45:30.803Z,4.50
2022-08-13T09:48:34.171Z,4.60
2022-08-13T09:51:56.775Z,5.20
2022-08-13T09:54:34.614Z,4.40
2022-08-13T09:57:22.332Z,4.57
2022-08-13T10:00:11.936Z,5.35
2022-08-13T10:03:02.795Z,5.13
2022-08-13T10:05:53.544Z,4.55
2022-08-13T10:08:43.324Z,6.00
2022-08-13T10:12:09.842Z,4.65
2022-08-13T10:14:38.026Z,5.05
2022-08-13T10:17:42.323Z,5.78
2022-08-13T10:20:37.736Z,6.80
2022-08-13T10:23:35.213Z,4.82
2022-08-13T10:26:22.514Z,7.25
2022-08-13T10:29:53.125Z,5.07
2022-08-13T10:32:23.496Z,6.85
2022-08-13T10:35:20.837Z,4.65
2022-08-13T10:38:19.413Z,5.13
2022-08-13T10:41:14.068Z,6.60
2022-08-13T10:44:01.854Z,4.38
2022-08-13T10:46:54.218Z,6.70
2022-08-13T10:49:41.344Z,6.10
2022-08-13T10:52:43.642Z,6.40
2022-08-13T10:55:33.624Z,5.18
2022-08-13T10:58:44.902Z,5.15
2022-08-13T11:01:33.415Z,5.13
2022-08-13T11:04:20.592Z,5.07
2022-08-13T11:07:17.170Z,4.72
2022-08-13T11:10:06.906Z,6.88
2022-08-13T11:13:02.728Z,5.15
2022-08-13T11:15:58.804Z,5.50
2022-08-13T11:18:45.970Z,4.93
2022-08-13T11:22:21.582Z,5.15
2022-08-13T11:24:40.601Z,5.78
2022-08-13T11:27:51.423Z,5.05
2022-08-13T11:30:39.626Z,5.72
2022-08-13T11:33:41.117Z,6.30
2022-08-13T11:36:34.390Z,5.60
2022-08-13T11:39:38.120Z,5.05
2022-08-13T11:42:32.867Z,6.65
2022-08-13T11:45:20.643Z,5.93
2022-08-13T11:48:08.052Z,5.32
2022-08-13T11:50:58.865Z,7.07
2022-08-13T11:54:00.296Z,5.30
2022-08-13T11:56:53.102Z,5.78
2022-08-13T11:59:45.183Z,7.22
2022-08-13T12:02:41.983Z,5.95
2022-08-13T12:05:29.370Z,4.82
2022-08-13T12:09:15.889Z,6.13
2022-08-13T12:11:31.766Z,4.88
2022-08-13T12:14:35.123Z,6.70
2022-08-13T12:17:49.694Z,6.78
2022-08-13T12:20:29.921Z,5.03
2022-08-13T12:23:27.489Z,5.28
2022-08-13T12:26:19.994Z,6.72
2022-08-13T12:29:11.770Z,4.78
2022-08-13T12:31:58.837Z,5.68
2022-08-13T12:34:48.769Z,6.97
2022-08-13T12:37:44.738Z,5.25
2022-08-13T12:40:32.021Z,5.20
2022-08-13T12:43:21.542Z,5.78
2022-08-13T12:46:34.786Z,6.05
2022-08-13T12:49:22.234Z,5.60
2022-08-13T12:52:09.238Z,5.40
2022-08-13T12:55:05.117Z,5.68
2022-08-13T12:58:24.118Z,6.90
2022-08-13T13:01:11.469Z,5.20
2022-08-13T13:03:59.963Z,5.00
2022-08-13T13:06:48.967Z,6.85
2022-08-13T13:09:48.187Z,5.55
2022-08-13T13:12:36.169Z,5.53
2022-08-13T13:15:47.518Z,6.28
2022-08-13T13:18:54.910Z,5.85
2022-08-13T13:21:39.544Z,7.32
2022-08-13T13:24:37.318Z,6.40
2022-08-13T13:27:45.971Z,6.00
2022-08-13T13:30:33.818Z,6.40
2022-08-13T13:33:24.650Z,5.60
2022-08-13T13:36:20.021Z,8.30
2022-08-13T13:39:07.261Z,5.93
2022-08-13T13:42:17.904Z,6.82
2022-08-13T13:45:16.949Z,6.95
2022-08-13T13:48:29.570Z,6.72
2022-08-13T13:51:18.201Z,6.60
2022-08-13T13:54:25.029Z,5.70
2022-08-13T13:57:12.810Z,6.18
2022-08-13T14:00:02.377Z,6.13
2022-08-13T14:02:56.876Z,6.50
2022-08-13T14:06:01.429Z,6.93
2022-08-13T14:08:51.919Z,5.50
2022-08-13T14:11:43.230Z,5.82
2022-08-13T14:14:31.354Z,5.65
2022-08-13T14:17:19.270Z,6.95
2022-08-13T14:20:07.658Z,5.30
2022-08-13T14:23:03.641Z,5.80
2022-08-13T14:25:55.208Z,9.20
2022-08-13T14:28:45.588Z,6.32
2022-08-13T14:31:36.636Z,9.07
2022-08-13T14:34:43.000Z,5.88
2022-08-13T14:37:44.951Z,6.47
2022-08-13T14:40:38.860Z,5.60
2022-08-13T14:43:27.443Z,5.65
2022-08-13T14:46:25.548Z,5.95
2022-08-13T14:49:12.889Z,6.80
2022-08-13T14:52:04.644Z,6.07
2022-08-13T14:54:52.194Z,5.88
2022-08-13T14:57:41.965Z,9.23
2022-08-13T15:00:34.279Z,5.70
2022-08-13T15:03:24.530Z,7.38
2022-08-13T15:06:11.678Z,5.65
2022-08-13T15:08:58.931Z,7.38
2022-08-13T15:11:51.186Z,5.68
2022-08-13T15:14:51.499Z,7.45
2022-08-13T15:17:41.810Z,6.03
2022-08-13T15:20:44.073Z,5.65
2022-08-13T15:23:39.660Z,6.00
2022-08-13T15:26:30.259Z,8.15
2022-08-13T15:29:25.428Z,7.68
2022-08-13T15:32:14.003Z,5.63
2022-08-13T15:35:01.995Z,5.85
2022-08-13T15:37:56.780Z,5.85
2022-08-13T15:40:46.900Z,6.80
2022-08-13T15:43:37.106Z,6.82
2022-08-13T15:46:28.685Z,6.00
2022-08-13T15:49:17.614Z,5.63
2022-08-13T15:52:06.081Z,7.65
2022-08-13T15:54:53.545Z,6.10
2022-08-13T15:57:44.431Z,6.10
2022-08-13T16:00:32.308Z,5.70
2022-08-13T16:03:22.994Z,5.80
2022-08-13T16:06:10.170Z,6.20
2022-08-13T16:09:03.787Z,8.43
2022-08-13T16:11:51.474Z,6.20
2022-08-13T16:14:39.880Z,6.63
2022-08-13T16:17:29.451Z,6.22
2022-08-13T16:20:17.073Z,7.10
2022-08-13T16:23:15.855Z,7.13
2022-08-13T16:26:06.734Z,6.28
2022-08-13T16:28:58.322Z,5.90
2022-08-13T16:31:48.300Z,5.65
2022-08-13T16:34:40.693Z,7.28
2022-08-13T16:37:46.299Z,9.38
2022-08-13T16:40:52.602Z,6.05
2022-08-13T16:43:59.656Z,6.60
2022-08-13T16:46:49.517Z,8.20
2022-08-13T16:49:37.494Z,6.78
2022-08-13T16:52:24.662Z,6.55
2022-08-13T16:55:11.939Z,7.03
2022-08-13T16:58:00.854Z,6.57
2022-08-13T17:00:50.218Z,7.00
2022-08-13T17:04:01.039Z,6.22
2022-08-13T17:07:08.593Z,6.50
2022-08-13T17:09:59.362Z,7.93
2022-08-13T17:12:46.719Z,6.70
2022-08-13T17:15:41.247Z,6.50
2022-08-13T17:18:30.415Z,6.80
2022-08-13T17:21:47.887Z,8.88
2022-08-13T17:24:27.735Z,8.18
2022-08-13T17:27:14.750Z,6.68
2022-08-13T17:30:09.972Z,5.97
2022-08-13T17:32:57.678Z,7.07
2022-08-13T17:35:45.251Z,6.00
2022-08-13T17:38:35.195Z,6.07
2022-08-13T17:41:22.785Z,7.63
2022-08-13T17:44:30.519Z,6.97
2022-08-13T17:47:59.802Z,6.25
2022-08-13T17:50:26.054Z,6.95
2022-08-13T17:53:16.315Z,6.28
2022-08-13T17:56:03.794Z,5.68
2022-08-13T17:58:52.814Z,6.72
2022-08-13T18:01:40.896Z,5.45
2022-08-13T18:04:32.727Z,7.57
2022-08-13T18:07:22.736Z,5.28
2022-08-13T18:10:13.333Z,6.60
2022-08-13T18:13:04.963Z,6.65
2022-08-13T18:17:06.141Z,5.40
2022-08-13T18:19:07.542Z,5.80
2022-08-13T18:21:56.905Z,7.97
2022-08-13T18:24:44.030Z,8.70
2022-08-13T18:28:15.485Z,6.72
2022-08-13T18:30:58.081Z,7.75
2022-08-13T18:34:04.746Z,8.45
2022-08-13T18:36:52.978Z,6.13
2022-08-13T18:39:42.474Z,5.78
2022-08-13T18:42:34.642Z,5.85
2022-08-13T18:45:57.310Z,5.55
2022-08-13T18:48:33.578Z,9.43
2022-08-13T18:51:40.030Z,7.13
2022-08-13T18:54:36.530Z,8.73
2022-08-13T18:57:31.814Z,6.15
2022-08-13T19:00:22.915Z,5.55
2022-08-13T19:03:10.200Z,6.15
2022-08-13T19:05:57.928Z,6.80
2022-08-13T19:08:49.424Z,5.50
2022-08-13T19:11:44.945Z,7.30
2022-08-13T19:14:37.666Z,6.53
2022-08-13T19:17:25.043Z,6.55
2022-08-13T19:20:16.242Z,6.00
2022-08-13T19:23:13.064Z,8.73
2022-08-13T19:26:04.879Z,6.28
2022-08-13T19:29:02.988Z,6.63
2022-08-13T19:31:52.329Z,8.20
2022-08-13T19:34:39.272Z,8.63
2022-08-13T19:37:41.013Z,6.25
2022-08-13T19:40:41.980Z,6.35
2022-08-13T19:43:37.680Z,5.93
2022-08-13T19:46:36.076Z,6.00
2022-08-13T19:49:24.291Z,6.40
2022-08-13T19:52:28.624Z,7.07
2022-08-13T19:55:53.029Z,6.28
2022-08-13T19:58:28.919Z,6.63
2022-08-13T20:01:15.967Z,6.15
2022-08-13T20:04:14.799Z,8.07
2022-08-13T20:07:05.928Z,6.43
2022-08-13T20:09:55.772Z,9.30
2022-08-13T20:12:43.518Z,7.13
2022-08-13T20:15:34.205Z,9.10
2022-08-13T20:18:33.445Z,7.13
2022-08-13T20:21:22.906Z,10.52
2022-08-13T20:24:22.055Z,6.85
2022-08-13T20:27:50.024Z,8.05
2022-08-13T20:30:35.748Z,6.40
2022-08-13T20:33:27.541Z,7.90
2022-08-13T20:36:14.560Z,6.70
2022-08-13T20:39:14.639Z,7.40
2022-08-13T20:42:09.117Z,7.30
2022-08-13T20:45:01.534Z,6.45
2022-08-13T20:48:04.672Z,6.73
2022-08-13T20:50:53.687Z,5.93
2022-08-13T20:53:48.641Z,6.80
2022-08-13T20:56:53.695Z,7.00
2022-08-13T21:00:44.602Z,7.07
2022-08-13T21:03:08.394Z,6.70
2022-08-13T21:05:56.856Z,6.70
2022-08-13T21:08:52.540Z,10.17
2022-08-13T21:11:48.484Z,6.17
2022-08-13T21:14:38.210Z,6.20
2022-08-13T21:17:37.705Z,6.13
2022-08-13T21:20:35.796Z,9.53
2022-08-13T21:23:23.323Z,6.73
2022-08-13T21:26:12.746Z,6.80
2022-08-13T21:29:31.661Z,7.57
2022-08-13T21:32:19.142Z,6.47
2022-08-13T21:35:08.626Z,5.80
2022-08-13T21:37:59.258Z,6.77
2022-08-13T21:40:48.200Z,10.93
2022-08-13T21:43:45.941Z,6.60
2022-08-13T21:46:38.442Z,6.60
2022-08-13T21:49:43.938Z,9.17
2022-08-13T21:52:36.707Z,7.37
2022-08-13T21:55:28.294Z,6.80
2022-08-13T21:58:21.344Z,6.53
2022-08-13T22:01:08.838Z,7.90
2022-08-13T22:04:14.782Z,7.10
2022-08-13T22:07:08.754Z,6.77
2022-08-13T22:09:59.821Z,6.47
2022-08-13T22:12:55.043Z,7.67
2022-08-13T22:15:55.306Z,8.20
2022-08-13T22:18:46.237Z,8.30
2022-08-13T22:21:33.854Z,7.17
2022-08-13T22:24:26.372Z,8.40
2022-08-13T22:27:13.752Z,6.83
2022-08-13T22:30:19.373Z,7.93
2022-08-13T22:33:11.198Z,7.67
2022-08-13T22:36:11.252Z,7.83
2022-08-13T22:39:10.235Z,7.07
2022-08-13T22:41:57.432Z,7.33
2022-08-13T22:44:45.804Z,10.93
2022-08-13T22:47:38.694Z,7.50
2022-08-13T22:50:26.472Z,8.37
2022-08-13T22:53:17.122Z,6.97
2022-08-13T22:56:04.720Z,7.67
2022-08-13T22:58:55.535Z,6.80
2022-08-13T23:01:49.188Z,9.03
2022-08-13T23:04:36.622Z,7.57
2022-08-13T23:07:25.108Z,7.63
2022-08-13T23:10:13.750Z,8.20
2022-08-13T23:13:00.949Z,8.93
2022-08-13T23:15:49.225Z,8.07
2022-08-13T23:18:37.273Z,7.50
2022-08-13T23:21:27.264Z,6.90
2022-08-13T23:24:17.574Z,9.80
2022-08-13T23:27:05.369Z,7.67
2022-08-13T23:29:52.801Z,7.63
2022-08-13T23:32:42.384Z,9.00
2022-08-13T23:35:33.961Z,7.30
2022-08-13T23:38:21.750Z,7.13
2022-08-13T23:41:09.005Z,8.87
2022-08-13T23:43:56.110Z,9.07
2022-08-13T23:46:43.360Z,8.03
2022-08-13T23:49:33.017Z,8.20
2022-08-13T23:52:21.024Z,7.60
2022-08-13T23:55:14.439Z,7.77
2022-08-13T23:58:04.425Z,8.47
